NOAA/GLERL Met Station at Muskegon, MI

Previous 5 days (top of hour only)
See slso Previous 3 Hours (2 minute increments)
Jump down to Data
Switch to [English][Metric]
Zoom: Click and drag, Pan: shift-click and drag, Unzoom: double-click, Unzoom All





Zoom: Click and drag, Pan: shift-click and drag, Unzoom: double-click, Unzoom All

Note: Speed = mean wind during 2-minute period at top of hour,
Gust = max wind during 2-minute period at top of hour,
Peak = max wind during entire hour.
• See also 5-day windrose plot

NOAA/GLERL Met Station at Muskegon, MI

Previous 5 days (top of hour only)
See slso Previous 3 Hours (2 minute increments)
Jump up to Graphs
Switch to [English][Metric]
                  Wind  Wind  Wind   Air   Dew   Rel     Sta   PAR
                   Spd   Gst   Dir  Temp    Pt   Hum    Pres uE/m2/
YYYY-MM-DD   EDT   kts   kts   deg     F     F     %   in Hg   sec
2016-06-26 04:00  18.1  19.6   191  71.8  65.7  80.9   29.32     2
2016-06-26 03:00  16.7  18.3   187  72.3  65.7  79.5   29.35     2
2016-06-26 02:00  17.1  18.9   186  72.9  65.4  77.1   29.37     2
2016-06-26 01:00  18.3  19.2   183  73.9  64.9  72.9   29.37     2
2016-06-26 00:00  17.1  18.7   180  75.4  64.4  68.2   29.40     2
2016-06-25 23:00  13.8  15.0   179  76.5  64.3  65.5   29.41     2
2016-06-25 22:00   9.9  12.2   166  75.6  64.5  68.1   29.39     2
2016-06-25 21:00  12.4  14.2   177  78.6  62.8  57.7   29.37   329
2016-06-25 20:00  12.8  13.4   180  76.8  63.0  61.9   29.39   349
2016-06-25 19:00  10.3  11.3   183  78.1  62.7  58.7   29.42  1746
2016-06-25 18:00  10.1  11.5   187  77.9  62.4  58.4   29.43  1985
2016-06-25 17:00   8.7  11.3   197  76.8  63.4  62.7   29.44  2102
2016-06-25 16:00   6.8   8.4   178  77.2  63.2  61.6   29.46  2154
2016-06-25 15:00   9.5  10.5   194  76.8  62.2  60.2   29.48   779
2016-06-25 14:00   7.8  10.5   188  74.8  62.6  65.1   29.49  2167
2016-06-25 13:00   8.0  10.9   186  73.8  61.8  65.7   29.50  2154
2016-06-25 12:00   8.6  10.7   186  73.0  60.6  64.6   29.51  2128
2016-06-25 11:00  11.7  12.8   187  70.5  60.3  69.6   29.51  2079
2016-06-25 10:00  12.6  14.2   183  69.1  59.3  70.7   29.52  1969
2016-06-25 09:00  11.5  12.6   188  68.2  57.8  69.0   29.51  1734
2016-06-25 08:00  11.9  13.0   181  70.0  54.8  58.0   29.50  1289
2016-06-25 07:00   5.1   7.0   134  66.0  53.0  62.5   29.49   582
2016-06-25 06:00   8.7  10.3   117  64.4  52.6  65.1   29.47    12
2016-06-25 05:00   8.9   9.9   111  65.3  52.6  63.1   29.47     2
2016-06-25 04:00   8.7  10.1   111  65.3  52.4  62.6   29.47     2
2016-06-25 03:00   8.9   9.7   108  66.7  51.4  57.4   29.47     2
2016-06-25 02:00   7.4   8.6   112  66.2  58.9  77.0   29.47     2
2016-06-25 01:00   8.4   8.7   112  66.2  58.9  76.9   29.47     2
2016-06-25 00:00   7.0   7.2   112  67.6  58.6  72.3   29.47     2
2016-06-24 23:00   6.0   6.4    96  68.4  54.4  60.5   29.48     2
2016-06-24 22:00   3.7   3.9    61  69.6  49.0  47.4   29.47     2
2016-06-24 21:00   1.7   2.1     6  72.9  57.6  58.3   29.46   459
2016-06-24 20:00   4.7   5.4   353  72.3  52.8  49.8   29.46   516
2016-06-24 19:00   7.2   8.4   349  72.1  56.8  58.0   29.47  1805
2016-06-24 18:00   9.7  10.9   333  72.1  57.7  59.9   29.48  1995
2016-06-24 17:00   8.9  10.1   333  73.4  55.7  53.3   29.48  2106
2016-06-24 16:00   7.2   7.6   329  72.3  58.0  60.3   29.48  2150
2016-06-24 15:00   8.0   8.2   297  71.8  57.2  59.7   29.49   763
2016-06-24 14:00   7.0   7.4   322  71.6  59.2  64.6   29.50  2171
2016-06-24 13:00   4.7   5.1   322  71.4  58.4  63.1   29.50  2160
2016-06-24 12:00   3.1   3.5   269  70.0  58.3  66.0   29.50  2134
2016-06-24 11:00   2.7   3.5   264  68.7  55.8  63.0   29.49  2087
2016-06-24 10:00   3.9   5.6    94  70.7  52.5  52.0   29.49  1993
2016-06-24 09:00   8.2  10.3    92  65.8  51.4  59.1   29.47  1809
2016-06-24 08:00   9.7  11.1    95  63.7  49.2  58.8   29.47  1467
2016-06-24 07:00   7.4   8.7    93  62.1  50.6  65.7   29.44   833
2016-06-24 06:00   8.7   9.9    94  61.3  54.9  79.2   29.43    12
2016-06-24 05:00   5.1   6.6   103  62.2  56.2  80.3   29.42     2
2016-06-24 04:00   6.8   7.8    87  62.4  56.2  79.8   29.42     2
2016-06-24 03:00   5.4   5.6    92  63.0  57.1  80.9   29.41     2
2016-06-24 02:00   4.5   5.2    86  64.2  57.8  79.3   29.41     2
2016-06-24 01:00   3.9   4.3    75  66.2  58.8  76.8   29.39     2
2016-06-24 00:00   5.4   7.0    58  67.5  57.8  70.7   29.38     2
2016-06-23 23:00   6.4   7.2    25  69.6  57.4  64.8   29.37     2
2016-06-23 22:00   3.7   6.0    90  72.1  57.0  58.4   29.35     2
2016-06-23 21:00   4.3   6.2    70  72.9  58.1  59.3   29.34    58
2016-06-23 20:00   7.4   9.1    67  74.7  58.2  56.0   29.33   354
2016-06-23 19:00   4.3   7.6    74  76.6  58.5  52.9   29.32   567
2016-06-23 18:00   5.2   6.8    78  76.6  57.7  51.4   29.32   822
2016-06-23 17:00   7.4   8.6    90  76.1  57.8  52.6   29.32  1239
2016-06-23 16:00   8.7  12.1    91  76.8  57.8  51.2   29.31  2502
2016-06-23 15:00   7.0  11.9    94  74.7  57.5  54.5   29.31  1707
2016-06-23 14:00   8.2  11.3    90  72.0  58.1  61.3   29.31  2134
2016-06-23 13:00  11.7  14.8    80  68.2  57.9  69.4   29.30  2545
2016-06-23 12:00   9.3  13.6    86  63.9  57.0  78.0   29.29   885
2016-06-23 11:00   7.2  12.2    93  60.3  56.3  86.7   29.28   480
2016-06-23 10:00   8.7  13.0    71  60.8  56.5  85.4   29.28   579
2016-06-23 09:00   7.0   8.4    68  59.7  55.4  85.3   29.28   317
2016-06-23 08:00   9.7  14.8    99  63.1  52.9  68.9   29.24    38
2016-06-23 07:00  13.0  17.7   103  63.3  54.5  72.6   29.21    73
2016-06-23 06:00   9.1  13.6    99  64.9  55.5  71.2   29.20     7
2016-06-23 05:00  10.5  14.4   102  67.1  57.1  69.8   29.19     2
2016-06-23 04:00   9.7  11.9   103  68.9  57.9  67.6   29.20     2
2016-06-23 03:00   5.4   7.0    84  69.1  60.4  73.6   29.20     2
2016-06-23 02:00   2.1   2.7    73  68.9  61.0  75.7   29.21     2
2016-06-23 01:00   2.1   2.5    35  69.1  60.8  74.5   29.21     2
2016-06-23 00:00   4.3   5.4    77  68.2  61.5  79.0   29.21     2
2016-06-22 23:00   1.6   2.1    42  68.4  62.7  81.9   29.23     2
2016-06-22 22:00   2.5   3.1    88  67.5  62.6  84.2   29.21     2
2016-06-22 21:00   3.3   3.9   189  66.4  63.0  88.8   29.24    33
2016-06-22 20:00   5.6   6.2   189  66.6  62.8  87.5   29.24   186
2016-06-22 19:00   8.2   9.1   208  68.2  63.1  83.6   29.26  1729
2016-06-22 18:00   6.6   7.8   198  69.1  61.9  77.6   29.26   893
2016-06-22 17:00   1.9   2.3   239  68.7  59.3  71.6   29.28  1503
2016-06-22 16:00   4.3   5.1   226  69.4  61.0  74.3   29.29  1701
2016-06-22 15:00  10.7  11.1   250  68.4  61.1  77.4   29.30  1484
2016-06-22 14:00   4.1   5.1   195  71.1  59.6  66.6   29.28  1862
2016-06-22 13:00   4.9   5.2   226  69.3  59.3  70.2   29.31  1399
2016-06-22 12:00   4.3   5.2    80  75.6  51.7  42.7   29.30   870
2016-06-22 11:00   7.0   9.1    91  75.0  51.7  43.6   29.30  2068
2016-06-22 10:00   5.1   6.2    94  70.9  57.1  61.2   29.31  1491
2016-06-22 09:00   1.4   2.3   137  67.3  56.2  67.1   29.32  1333
2016-06-22 08:00   7.4   8.4   104  64.2  57.4  78.3   29.31   574
2016-06-22 07:00   4.3   5.1   106  63.1  56.2  77.7   29.32   221
2016-06-22 06:00   4.1   4.9   111  61.9  56.7  83.0   29.31    16
2016-06-22 05:00   5.8   6.8    81  62.1  56.2  80.8   29.28     2
2016-06-22 04:00   4.3   4.9    57  63.0  55.7  77.0   29.27     2
2016-06-22 03:00   8.2   8.6   345  63.3  58.1  82.9   29.26     2
2016-06-22 02:00  11.3  14.2   280  64.0  57.8  80.0   29.26     2
2016-06-22 01:00  15.0  16.5   262  63.3  58.1  82.8   29.26     2
2016-06-22 00:00  14.0  15.6   252  64.0  57.1  77.9   29.26     2
2016-06-21 23:00  16.7  18.9   241  64.4  56.9  76.2   29.25     2
2016-06-21 22:00  16.5  18.3   240  64.0  57.5  78.9   29.25     2
2016-06-21 21:00  15.6  16.7   234  64.9  57.3  76.1   29.25   114
2016-06-21 20:00  14.6  15.7   231  65.8  57.2  73.4   29.25  1265